createdAt,value
2023-04-19T00:01:04.685Z,10.35
2023-04-19T00:03:32.684Z,10.36
2023-04-19T00:05:59.359Z,10.37
2023-04-19T00:08:26.003Z,10.40
2023-04-19T00:10:52.530Z,10.39
2023-04-19T00:13:19.085Z,10.39
2023-04-19T00:15:45.718Z,10.43
2023-04-19T00:18:12.196Z,10.42
2023-04-19T00:20:40.069Z,10.47
2023-04-19T00:23:06.610Z,10.44
2023-04-19T00:25:33.204Z,10.46
2023-04-19T00:27:59.733Z,10.45
2023-04-19T00:30:26.216Z,10.47
2023-04-19T00:32:53.262Z,10.46
2023-04-19T00:35:20.029Z,10.46
2023-04-19T00:37:47.880Z,10.47
2023-04-19T00:40:14.634Z,10.46
2023-04-19T00:42:41.210Z,10.49
2023-04-19T00:45:08.903Z,10.51
2023-04-19T00:47:36.153Z,10.55
2023-04-19T00:50:03.684Z,10.54
2023-04-19T00:52:30.355Z,10.55
2023-04-19T00:54:58.624Z,10.55
2023-04-19T00:57:25.227Z,10.57
2023-04-19T00:59:51.790Z,10.57
2023-04-19T01:02:18.587Z,10.54
2023-04-19T01:04:45.136Z,10.57
2023-04-19T01:07:11.700Z,10.54
2023-04-19T01:09:40.714Z,10.55
2023-04-19T01:12:08.570Z,10.54
2023-04-19T01:14:35.056Z,10.51
2023-04-19T01:17:01.563Z,10.50
2023-04-19T01:19:28.000Z,10.49
2023-04-19T01:21:54.472Z,10.52
2023-04-19T01:24:22.299Z,10.52
2023-04-19T01:26:48.798Z,10.49
2023-04-19T01:29:15.253Z,10.48
2023-04-19T01:31:41.798Z,10.50
2023-04-19T01:34:08.421Z,10.50
2023-04-19T01:36:34.956Z,10.49
2023-04-19T01:39:01.658Z,10.46
2023-04-19T01:41:29.515Z,10.47
2023-04-19T01:43:56.033Z,10.48
2023-04-19T01:46:22.597Z,10.47
2023-04-19T01:48:49.124Z,10.50
2023-04-19T01:51:15.596Z,10.49
2023-04-19T01:53:42.059Z,10.46
2023-04-19T01:56:08.525Z,10.43
2023-04-19T01:58:36.289Z,10.45
2023-04-19T02:01:02.851Z,10.48
2023-04-19T02:03:29.580Z,10.47
2023-04-19T02:05:57.360Z,10.46
2023-04-19T02:08:23.877Z,10.47
2023-04-19T02:10:50.330Z,10.48
2023-04-19T02:13:16.832Z,10.43
2023-04-19T02:15:44.732Z,10.47
2023-04-19T02:18:11.237Z,10.43
2023-04-19T02:20:37.711Z,10.45
2023-04-19T02:23:04.214Z,10.47
2023-04-19T02:25:30.756Z,10.46
2023-04-19T02:27:57.256Z,10.44
2023-04-19T02:30:24.003Z,10.43
2023-04-19T02:32:51.865Z,10.47
2023-04-19T02:35:18.389Z,10.41
2023-04-19T02:37:44.904Z,10.41
2023-04-19T02:40:11.778Z,10.39
2023-04-19T02:42:38.305Z,10.36
2023-04-19T02:45:05.727Z,10.36
2023-04-19T02:47:32.298Z,10.27
2023-04-19T02:50:01.305Z,10.25
2023-04-19T02:52:27.893Z,10.20
2023-04-19T02:54:54.428Z,10.16
2023-04-19T02:57:20.954Z,10.11
2023-04-19T02:59:47.446Z,10.05
2023-04-19T03:02:13.971Z,9.99
2023-04-19T03:04:40.445Z,10.01
2023-04-19T03:07:09.917Z,9.96
2023-04-19T03:09:36.508Z,9.94
2023-04-19T03:12:03.005Z,9.92
2023-04-19T03:14:29.461Z,9.90
2023-04-19T03:16:55.979Z,9.86
2023-04-19T03:19:22.479Z,9.88
2023-04-19T03:21:48.970Z,9.91
2023-04-19T03:24:18.976Z,9.91
2023-04-19T03:26:45.444Z,9.95
2023-04-19T03:29:13.205Z,9.93
2023-04-19T03:31:39.801Z,9.95
2023-04-19T03:34:06.396Z,9.94
2023-04-19T03:36:32.869Z,9.96
2023-04-19T03:38:59.346Z,9.96
2023-04-19T03:41:27.313Z,9.94
2023-04-19T03:43:55.190Z,9.93
2023-04-19T03:46:21.735Z,9.93
2023-04-19T03:48:48.250Z,9.93
2023-04-19T03:51:14.737Z,9.96
2023-04-19T03:53:41.273Z,10.01
2023-04-19T03:56:08.307Z,10.09
2023-04-19T03:58:36.201Z,10.12
2023-04-19T04:01:03.187Z,10.13
2023-04-19T04:03:29.820Z,10.17
2023-04-19T04:05:56.409Z,10.20
2023-04-19T04:08:23.024Z,10.21
2023-04-19T04:10:49.611Z,10.24
2023-04-19T04:13:16.127Z,10.25
2023-04-19T04:15:43.970Z,10.28
2023-04-19T04:18:10.478Z,10.24
2023-04-19T04:20:36.954Z,10.30
2023-04-19T04:23:03.436Z,10.30
2023-04-19T04:25:29.944Z,10.31
2023-04-19T04:27:56.472Z,10.29
2023-04-19T04:30:24.336Z,10.32
2023-04-19T04:32:53.803Z,10.34
2023-04-19T04:35:20.306Z,10.33
2023-04-19T04:37:46.795Z,10.29
2023-04-19T04:40:13.297Z,10.21
2023-04-19T04:42:39.889Z,10.20
2023-04-19T04:45:07.448Z,10.23
2023-04-19T04:47:34.597Z,10.20
2023-04-19T04:50:03.116Z,10.18
2023-04-19T04:52:30.186Z,10.20
2023-04-19T04:54:56.723Z,10.21
2023-04-19T04:57:23.226Z,10.19
2023-04-19T04:59:49.720Z,10.23
2023-04-19T05:02:16.693Z,10.27
2023-04-19T05:04:43.678Z,10.23
2023-04-19T05:07:11.606Z,10.28
2023-04-19T05:09:38.102Z,10.32
2023-04-19T05:12:05.313Z,10.34
2023-04-19T05:14:31.827Z,10.39
2023-04-19T05:16:58.315Z,10.38
2023-04-19T05:19:24.824Z,10.40
2023-04-19T05:21:51.378Z,10.41
2023-04-19T05:24:19.285Z,10.35
2023-04-19T05:26:45.818Z,10.37
2023-04-19T05:29:12.312Z,10.36
2023-04-19T05:31:38.902Z,10.37
2023-04-19T05:34:05.406Z,10.25
2023-04-19T05:36:32.014Z,10.21
2023-04-19T05:38:58.549Z,10.17
2023-04-19T05:41:26.397Z,10.08
2023-04-19T05:43:52.923Z,10.05
2023-04-19T05:46:19.425Z,10.05
2023-04-19T05:48:46.014Z,10.00
2023-04-19T05:51:13.280Z,10.03
2023-04-19T05:53:39.786Z,10.08
2023-04-19T05:56:06.782Z,10.04
2023-04-19T05:58:34.661Z,10.06
2023-04-19T06:01:01.909Z,9.98
2023-04-19T06:03:31.142Z,10.05
2023-04-19T06:05:59.209Z,10.03
2023-04-19T06:08:25.747Z,10.00
2023-04-19T06:10:55.852Z,10.07
2023-04-19T06:13:24.917Z,10.06
2023-04-19T06:15:52.894Z,10.06
2023-04-19T06:18:20.387Z,10.11
2023-04-19T06:20:47.170Z,10.14
2023-04-19T06:23:14.460Z,10.15
2023-04-19T06:25:40.963Z,10.20
2023-04-19T06:28:07.445Z,10.28
2023-04-19T06:30:33.926Z,10.26
2023-04-19T06:33:01.882Z,10.26
2023-04-19T06:35:28.425Z,10.25
2023-04-19T06:37:54.944Z,10.21
2023-04-19T06:40:21.717Z,10.18
2023-04-19T06:42:48.191Z,10.25
2023-04-19T06:45:14.869Z,10.28
2023-04-19T06:47:41.464Z,10.32
2023-04-19T06:50:10.805Z,10.33
2023-04-19T06:52:38.240Z,10.36
2023-04-19T06:55:05.515Z,10.43
2023-04-19T06:57:32.037Z,10.48
2023-04-19T06:59:58.699Z,10.54
2023-04-19T07:02:25.354Z,10.56
2023-04-19T07:04:52.071Z,10.63
2023-04-19T07:07:19.922Z,10.64
2023-04-19T07:09:46.402Z,10.70
2023-04-19T07:12:12.887Z,10.82
2023-04-19T07:14:39.401Z,10.92
2023-04-19T07:17:06.102Z,10.98
2023-04-19T07:19:32.711Z,11.00
2023-04-19T07:21:59.211Z,11.04
2023-04-19T07:24:27.080Z,11.07
2023-04-19T07:26:53.836Z,11.00
2023-04-19T07:29:20.356Z,11.06
2023-04-19T07:31:46.878Z,11.06
2023-04-19T07:34:13.552Z,11.03
2023-04-19T07:36:40.117Z,11.11
2023-04-19T07:39:06.644Z,11.16
2023-04-19T07:41:35.964Z,11.18
2023-04-19T07:44:02.811Z,11.20
2023-04-19T07:46:29.449Z,11.24
2023-04-19T07:48:56.015Z,11.30
2023-04-19T07:51:22.508Z,11.38
2023-04-19T07:53:49.049Z,11.34
2023-04-19T07:56:15.642Z,11.32
2023-04-19T07:58:44.034Z,11.36
2023-04-19T08:01:11.812Z,11.41
2023-04-19T08:03:38.561Z,11.48
2023-04-19T08:06:06.295Z,11.59
2023-04-19T08:08:34.117Z,11.68
2023-04-19T08:11:01.966Z,11.77
2023-04-19T08:13:28.822Z,11.86
2023-04-19T08:18:26.294Z,11.80
2023-04-19T08:20:52.893Z,11.83
2023-04-19T08:23:24.531Z,11.93
2023-04-19T08:25:54.242Z,12.12
2023-04-19T08:28:20.794Z,12.19
2023-04-19T08:30:47.496Z,12.29
2023-04-19T08:33:15.462Z,12.40
2023-04-19T08:35:42.035Z,12.40
2023-04-19T08:38:08.967Z,12.37
2023-04-19T08:40:37.301Z,12.43
2023-04-19T08:43:05.997Z,12.45
2023-04-19T08:45:33.197Z,12.48
2023-04-19T08:48:02.500Z,12.50
2023-04-19T08:50:35.922Z,12.62
2023-04-19T08:55:58.490Z,12.68
2023-04-19T09:00:59.742Z,12.83
2023-04-19T09:03:26.454Z,12.88
2023-04-19T09:05:54.792Z,12.82
2023-04-19T09:08:23.469Z,12.95
2023-04-19T09:10:54.589Z,13.05
2023-04-19T09:13:21.303Z,13.16
2023-04-19T09:15:47.786Z,13.12
2023-04-19T09:18:14.292Z,13.17
2023-04-19T09:20:42.206Z,13.24
2023-04-19T09:23:12.270Z,13.28
2023-04-19T09:26:05.812Z,13.24
2023-04-19T09:28:25.397Z,13.42
2023-04-19T09:33:32.398Z,13.53
2023-04-19T09:35:59.930Z,13.51
2023-04-19T09:38:27.920Z,13.52
2023-04-19T09:41:07.993Z,13.44
2023-04-19T09:46:04.264Z,13.68
2023-04-19T09:48:30.840Z,13.81
2023-04-19T09:51:02.304Z,13.85
2023-04-19T09:53:32.052Z,13.95
2023-04-19T09:56:02.107Z,14.08
2023-04-19T09:58:38.087Z,14.04
2023-04-19T10:01:16.575Z,13.92
2023-04-19T10:03:47.540Z,13.92
2023-04-19T10:08:50.098Z,14.05
2023-04-19T10:11:17.632Z,14.05
2023-04-19T10:13:46.879Z,14.08
2023-04-19T10:16:19.406Z,14.10
2023-04-19T10:18:48.431Z,14.13
2023-04-19T10:21:15.462Z,14.30
2023-04-19T10:23:42.308Z,14.41
2023-04-19T10:26:10.138Z,14.21
2023-04-19T10:28:36.721Z,14.41
2023-04-19T10:31:04.616Z,14.45
2023-04-19T10:33:34.420Z,14.38
2023-04-19T10:36:01.760Z,14.32
2023-04-19T10:38:39.264Z,14.51
2023-04-19T10:41:06.213Z,14.47
2023-04-19T10:43:34.510Z,14.54
2023-04-19T10:46:06.237Z,14.62
2023-04-19T10:48:40.973Z,14.61
2023-04-19T10:51:15.351Z,14.56
2023-04-19T10:53:46.962Z,14.47
2023-04-19T10:56:14.249Z,14.53
2023-04-19T10:59:16.558Z,14.71
2023-04-19T11:01:44.581Z,14.85
2023-04-19T11:04:12.530Z,14.99
2023-04-19T11:06:57.170Z,14.94
2023-04-19T11:09:23.986Z,14.96
2023-04-19T11:11:50.614Z,15.02
2023-04-19T11:14:20.390Z,15.15
2023-04-19T11:16:47.112Z,15.12
2023-04-19T11:19:15.462Z,15.11
2023-04-19T11:21:42.092Z,15.12
2023-04-19T11:24:08.913Z,15.25
2023-04-19T11:26:35.419Z,15.15
2023-04-19T11:29:02.339Z,14.90
2023-04-19T11:31:32.300Z,14.91
2023-04-19T11:33:59.000Z,14.87
2023-04-19T11:36:25.526Z,15.01
2023-04-19T11:38:53.401Z,15.05
2023-04-19T11:41:19.954Z,15.00
2023-04-19T11:43:46.530Z,15.03
2023-04-19T11:46:13.912Z,15.07
2023-04-19T11:48:51.545Z,15.13
2023-04-19T11:51:18.016Z,15.10
2023-04-19T11:53:44.658Z,15.05
2023-04-19T11:56:11.129Z,15.16
2023-04-19T11:58:39.104Z,15.09
2023-04-19T12:01:07.445Z,15.27
2023-04-19T12:03:34.860Z,15.34
2023-04-19T12:06:03.682Z,15.43
2023-04-19T12:08:31.477Z,15.35
2023-04-19T12:10:59.050Z,15.43
2023-04-19T12:13:26.148Z,15.45
2023-04-19T12:15:52.814Z,15.30
2023-04-19T12:18:19.358Z,15.39
2023-04-19T12:20:48.302Z,15.55
2023-04-19T12:23:17.088Z,15.87
2023-04-19T12:25:44.935Z,15.98
2023-04-19T12:28:12.044Z,15.94
2023-04-19T12:30:39.124Z,15.79
2023-04-19T12:33:06.971Z,15.85
2023-04-19T12:35:34.227Z,15.80
2023-04-19T12:38:01.507Z,15.72
2023-04-19T12:40:31.008Z,15.79
2023-04-19T12:42:57.527Z,15.97
2023-04-19T12:45:24.045Z,15.96
2023-04-19T12:47:50.646Z,15.90
2023-04-19T12:50:17.152Z,15.87
2023-04-19T12:52:45.077Z,15.79
2023-04-19T12:55:11.624Z,15.78
2023-04-19T12:57:39.432Z,15.98
2023-04-19T13:00:07.216Z,16.03
2023-04-19T13:02:34.639Z,16.16
2023-04-19T13:05:01.857Z,16.03
2023-04-19T13:07:28.659Z,16.10
2023-04-19T13:09:56.723Z,16.09
2023-04-19T13:12:23.619Z,16.01
2023-04-19T13:14:51.568Z,16.05
2023-04-19T13:17:18.530Z,15.96
2023-04-19T13:19:44.964Z,15.93
2023-04-19T13:22:11.492Z,16.05
2023-04-19T13:24:38.022Z,16.03
2023-04-19T13:27:05.969Z,16.10
2023-04-19T13:29:33.979Z,16.10
2023-04-19T13:32:01.820Z,16.17
2023-04-19T13:34:28.759Z,16.12
2023-04-19T13:36:55.359Z,16.03
2023-04-19T13:39:21.860Z,16.05
2023-04-19T13:41:48.390Z,16.03
2023-04-19T13:44:15.130Z,15.87
2023-04-19T13:46:42.026Z,15.80
2023-04-19T13:49:09.864Z,15.75
2023-04-19T13:51:48.958Z,15.63
2023-04-19T13:54:16.632Z,15.62
2023-04-19T13:56:43.215Z,15.66
2023-04-19T13:59:09.771Z,15.67
2023-04-19T14:01:36.329Z,15.69
2023-04-19T14:04:03.225Z,15.69
2023-04-19T14:06:31.338Z,15.78
2023-04-19T14:08:57.848Z,15.72
2023-04-19T14:11:25.514Z,15.70
2023-04-19T14:13:52.606Z,15.77
2023-04-19T14:16:19.208Z,15.95
2023-04-19T14:18:45.731Z,15.97
2023-04-19T14:21:12.286Z,15.98
2023-04-19T14:23:40.121Z,15.85
2023-04-19T14:26:06.602Z,15.91
2023-04-19T14:28:33.101Z,15.74
2023-04-19T14:30:59.605Z,15.60
2023-04-19T14:33:26.153Z,15.55
2023-04-19T14:35:52.718Z,15.61
2023-04-19T14:38:19.261Z,15.48
2023-04-19T14:40:48.243Z,15.60
2023-04-19T14:43:15.606Z,15.71
2023-04-19T14:45:42.199Z,15.73
2023-04-19T14:48:08.809Z,15.67
2023-04-19T14:50:35.404Z,15.69
2023-04-19T14:53:01.860Z,15.73
2023-04-19T14:55:28.455Z,15.79
2023-04-19T14:57:56.274Z,15.86
2023-04-19T15:00:23.023Z,15.88
2023-04-19T15:02:49.662Z,15.98
2023-04-19T15:05:16.529Z,16.02
2023-04-19T15:07:43.221Z,16.04
2023-04-19T15:10:10.391Z,15.91
2023-04-19T15:12:36.898Z,16.03
2023-04-19T15:15:05.558Z,15.98
2023-04-19T15:17:32.048Z,16.07
2023-04-19T15:19:58.586Z,16.20
2023-04-19T15:22:25.175Z,16.29
2023-04-19T15:24:51.710Z,16.14
2023-04-19T15:27:18.184Z,15.90
2023-04-19T15:29:46.982Z,15.87
2023-04-19T15:32:14.880Z,15.86
2023-04-19T15:34:41.418Z,16.10
2023-04-19T15:37:07.925Z,16.46
2023-04-19T15:39:34.462Z,16.47
2023-04-19T15:42:00.984Z,16.55
2023-04-19T15:44:27.535Z,16.48
2023-04-19T15:46:54.119Z,16.58
2023-04-19T15:49:22.013Z,16.52
2023-04-19T15:51:48.523Z,16.41
2023-04-19T15:54:15.057Z,16.41
2023-04-19T15:56:41.601Z,16.24
2023-04-19T15:59:08.113Z,16.15
2023-04-19T16:01:34.749Z,16.18
2023-04-19T16:04:01.456Z,16.07
2023-04-19T16:06:29.553Z,16.22
2023-04-19T16:08:56.130Z,16.39
2023-04-19T16:11:22.703Z,16.69
2023-04-19T16:13:49.265Z,16.89
2023-04-19T16:16:15.825Z,16.56
2023-04-19T16:18:42.398Z,16.50
2023-04-19T16:21:08.877Z,16.33
2023-04-19T16:23:36.718Z,16.05
2023-04-19T16:26:03.390Z,15.86
2023-04-19T16:28:29.850Z,15.81
2023-04-19T16:30:56.882Z,15.67
2023-04-19T16:33:23.496Z,15.83
2023-04-19T16:35:50.008Z,16.22
2023-04-19T16:38:16.503Z,16.21
2023-04-19T16:40:44.356Z,15.93
2023-04-19T16:43:10.883Z,16.21
2023-04-19T16:45:37.465Z,16.09
2023-04-19T16:48:04.263Z,15.93
2023-04-19T16:50:30.965Z,15.75
2023-04-19T16:52:57.463Z,15.90
2023-04-19T16:55:23.938Z,15.85
2023-04-19T16:57:51.865Z,15.84
2023-04-19T17:00:18.908Z,15.80
2023-04-19T17:02:45.630Z,15.69
2023-04-19T17:05:12.664Z,15.35
2023-04-19T17:07:39.365Z,15.07
2023-04-19T17:10:07.090Z,14.91
2023-04-19T17:12:33.660Z,15.10
2023-04-19T17:15:01.536Z,15.17
2023-04-19T17:17:28.020Z,15.19
2023-04-19T17:19:56.669Z,15.16
2023-04-19T17:22:23.463Z,15.03
2023-04-19T17:24:49.987Z,15.02
2023-04-19T17:27:16.508Z,15.01
2023-04-19T17:29:43.014Z,14.92
2023-04-19T17:32:10.864Z,14.60
2023-04-19T17:34:37.383Z,14.46
2023-04-19T17:37:04.045Z,14.35
2023-04-19T17:39:30.607Z,14.26
2023-04-19T17:41:57.148Z,14.19
2023-04-19T17:44:24.067Z,14.10
2023-04-19T17:46:50.668Z,14.22
2023-04-19T17:49:18.960Z,14.36
2023-04-19T17:51:45.970Z,14.36
2023-04-19T17:54:12.436Z,14.96
2023-04-19T17:56:38.935Z,15.37
2023-04-19T17:59:05.408Z,15.42
2023-04-19T18:01:31.954Z,14.99
2023-04-19T18:03:58.701Z,14.42
2023-04-19T18:06:26.930Z,14.20
2023-04-19T18:08:53.473Z,13.99
2023-04-19T18:11:20.035Z,13.69
2023-04-19T18:13:46.557Z,13.46
2023-04-19T18:16:13.175Z,13.44
2023-04-19T18:18:39.666Z,13.18
2023-04-19T18:21:06.435Z,13.06
2023-04-19T18:23:34.265Z,12.97
2023-04-19T18:26:01.676Z,12.83
2023-04-19T18:28:28.232Z,12.69
2023-04-19T18:30:54.766Z,12.56
2023-04-19T18:33:21.289Z,12.46
2023-04-19T18:35:47.803Z,12.35
2023-04-19T18:38:14.320Z,12.30
2023-04-19T18:40:42.165Z,12.30
2023-04-19T18:43:08.681Z,12.25
2023-04-19T18:45:35.260Z,12.16
2023-04-19T18:48:01.798Z,12.13
2023-04-19T18:50:29.789Z,12.04
2023-04-19T18:52:56.310Z,11.92
2023-04-19T18:55:23.127Z,11.87
2023-04-19T18:57:50.969Z,11.85
2023-04-19T19:00:17.692Z,11.81
2023-04-19T19:02:45.005Z,11.82
2023-04-19T19:05:13.830Z,11.70
2023-04-19T19:07:40.925Z,11.64
2023-04-19T19:12:38.002Z,11.55
2023-04-19T19:15:07.689Z,11.47
2023-04-19T19:17:34.309Z,11.46
2023-04-19T19:20:00.887Z,11.38
2023-04-19T19:22:28.799Z,11.40
2023-04-19T19:24:55.717Z,11.32
2023-04-19T19:27:22.274Z,11.24
2023-04-19T19:29:48.826Z,11.18
2023-04-19T19:32:16.630Z,11.16
2023-04-19T19:34:53.786Z,11.18
2023-04-19T19:37:22.579Z,11.12
2023-04-19T19:39:49.508Z,11.10
2023-04-19T19:42:16.769Z,11.04
2023-04-19T19:44:43.398Z,10.95
2023-04-19T19:47:10.924Z,10.90
2023-04-19T19:52:08.601Z,10.82
2023-04-19T19:54:35.166Z,10.83
2023-04-19T19:59:34.470Z,10.75
2023-04-19T20:02:01.678Z,10.71
2023-04-19T20:04:28.459Z,10.79
2023-04-19T20:07:25.885Z,10.72
2023-04-19T20:09:43.427Z,10.64
2023-04-19T20:12:10.065Z,10.61
2023-04-19T20:14:36.940Z,10.57
2023-04-19T20:17:03.602Z,10.64
2023-04-19T20:19:30.167Z,10.45
2023-04-19T20:21:57.988Z,10.54
2023-04-19T20:24:24.500Z,10.44
2023-04-19T20:26:51.060Z,10.39
2023-04-19T20:29:17.783Z,10.35
2023-04-19T20:31:44.578Z,10.30
2023-04-19T20:34:11.114Z,10.25
2023-04-19T20:36:37.707Z,10.20
2023-04-19T20:39:06.719Z,10.18
2023-04-19T20:41:33.199Z,10.20
2023-04-19T20:43:59.842Z,10.12
2023-04-19T20:46:26.626Z,10.13
2023-04-19T20:48:53.243Z,10.11
2023-04-19T20:51:19.882Z,10.07
2023-04-19T20:53:46.395Z,10.04
2023-04-19T20:56:14.206Z,9.97
2023-04-19T20:58:40.703Z,9.93
2023-04-19T21:01:07.346Z,9.88
2023-04-19T21:03:34.038Z,9.79
2023-04-19T21:06:01.353Z,9.78
2023-04-19T21:08:28.264Z,9.73
2023-04-19T21:10:54.732Z,9.69
2023-04-19T21:13:22.559Z,9.63
2023-04-19T21:15:49.093Z,9.64
2023-04-19T21:18:15.619Z,9.56
2023-04-19T21:20:42.233Z,9.54
2023-04-19T21:23:08.931Z,9.52
2023-04-19T21:25:35.487Z,9.47
2023-04-19T21:28:02.020Z,9.44
2023-04-19T21:30:29.952Z,9.45
2023-04-19T21:32:56.499Z,9.33
2023-04-19T21:35:23.030Z,9.34
2023-04-19T21:37:49.522Z,9.29
2023-04-19T21:40:16.060Z,9.23
2023-04-19T21:42:42.513Z,9.18
2023-04-19T21:45:09.864Z,9.30
2023-04-19T21:47:37.717Z,9.13
2023-04-19T21:50:04.865Z,9.07
2023-04-19T21:52:31.309Z,9.09
2023-04-19T21:54:57.860Z,9.02
2023-04-19T21:57:24.427Z,9.02
2023-04-19T21:59:50.923Z,8.99
2023-04-19T22:02:17.481Z,8.93
2023-04-19T22:04:45.428Z,8.92
2023-04-19T22:07:11.972Z,8.86
2023-04-19T22:09:38.826Z,8.82
2023-04-19T22:12:06.066Z,8.77
2023-04-19T22:14:32.559Z,8.71
2023-04-19T22:16:59.039Z,8.67
2023-04-19T22:19:25.600Z,8.64
2023-04-19T22:21:53.584Z,8.59
2023-04-19T22:24:20.181Z,8.60
2023-04-19T22:26:46.703Z,8.61
2023-04-19T22:29:13.173Z,8.61
2023-04-19T22:31:39.700Z,8.51
2023-04-19T22:34:06.188Z,8.52
2023-04-19T22:36:32.653Z,8.53
2023-04-19T22:39:00.498Z,8.51
2023-04-19T22:41:26.985Z,8.47
2023-04-19T22:43:53.537Z,8.46
2023-04-19T22:46:20.095Z,8.40
2023-04-19T22:48:46.658Z,8.37
2023-04-19T22:51:13.115Z,8.39
2023-04-19T22:53:39.609Z,8.26
2023-04-19T22:56:07.671Z,8.14
2023-04-19T22:58:34.176Z,8.14
2023-04-19T23:01:00.751Z,8.09
2023-04-19T23:03:27.233Z,8.11
2023-04-19T23:05:53.727Z,8.12
2023-04-19T23:08:20.252Z,8.15
2023-04-19T23:10:46.776Z,8.08
2023-04-19T23:13:14.614Z,8.02
2023-04-19T23:15:41.151Z,8.04
2023-04-19T23:18:07.732Z,8.00
2023-04-19T23:20:34.217Z,8.00
2023-04-19T23:23:00.731Z,7.99
2023-04-19T23:25:27.388Z,7.90
2023-04-19T23:27:53.857Z,7.91
2023-04-19T23:30:21.696Z,7.87
2023-04-19T23:32:48.229Z,7.80
2023-04-19T23:35:14.749Z,7.82
2023-04-19T23:37:41.290Z,7.73
2023-04-19T23:40:09.664Z,7.78
2023-04-19T23:42:36.880Z,7.85
2023-04-19T23:45:04.163Z,7.79
2023-04-19T23:47:32.255Z,7.69
2023-04-19T23:49:58.899Z,7.77
2023-04-19T23:52:25.416Z,7.69
2023-04-19T23:54:51.886Z,7.72
2023-04-19T23:57:18.855Z,7.64
2023-04-19T23:59:45.427Z,7.61
